Weather at Bøverbru Airfield

Public forecast

Using degrees Celsius for public forecast. Weather courtesy of forecast.io.

Closest aviation weather report (METAR) to Bøverbru Airfield

Closest report is Oslo Airport, Gardermoen, 29.4 nm (54.5 km) SSE.

2024/07/24 03:50 (retrieved 11 minutes ago)

ENGM 240350Z 01009KT 9999 FEW016 BKN033 14/11 Q1013 NOSIG

Closest aviation forecast (TAF) to Bøverbru Airfield

Forecast is more than 12 hours old.

Closest forecast is Ämari Air Base, 414.3 nm (767.2 km) E.

2024/07/23 13:00 Ammendment (retrieved 15 hours ago)

TAF AMD EEEI 231315Z 2313/2412 CNL